createdAt,value
2019-02-11T00:00:34.674Z,99276.47
2019-02-11T00:03:03.296Z,99278.41
2019-02-11T00:05:31.893Z,99281.10
2019-02-11T00:08:00.496Z,99311.61
2019-02-11T00:10:29.120Z,99295.64
2019-02-11T00:12:57.744Z,99290.28
2019-02-11T00:15:26.382Z,99310.28
2019-02-11T00:17:55.000Z,99335.88
2019-02-11T00:20:23.601Z,99319.16
2019-02-11T00:22:52.197Z,99354.37
2019-02-11T00:25:21.414Z,99372.91
2019-02-11T00:27:50.007Z,99389.64
2019-02-11T00:30:18.635Z,99401.47
2019-02-11T00:32:47.246Z,99403.97
2019-02-11T00:35:15.850Z,99406.95
2019-02-11T00:37:44.423Z,99412.21
2019-02-11T00:40:13.126Z,99424.02
2019-02-11T00:42:41.722Z,99465.22
2019-02-11T00:45:10.333Z,99493.14
2019-02-11T00:47:38.865Z,99472.67
2019-02-11T00:50:08.455Z,99458.92
2019-02-11T00:52:37.056Z,99481.63
2019-02-11T00:55:05.979Z,99493.62
2019-02-11T00:57:34.584Z,99480.45
2019-02-11T01:00:03.464Z,99477.59
2019-02-11T01:02:32.110Z,99484.64
2019-02-11T01:05:00.902Z,99496.95
2019-02-11T01:07:29.622Z,99498.75
2019-02-11T01:09:58.490Z,99508.05
2019-02-11T01:12:27.299Z,99498.28
2019-02-11T01:14:55.896Z,99519.72
2019-02-11T01:17:24.544Z,99516.48
2019-02-11T01:19:53.195Z,99525.02
2019-02-11T01:22:21.833Z,99536.14
2019-02-11T01:24:50.435Z,99551.91
2019-02-11T01:27:19.040Z,99555.12
2019-02-11T01:29:47.642Z,99565.23
2019-02-11T01:32:16.312Z,99559.63
2019-02-11T01:34:44.877Z,99566.45
2019-02-11T01:37:13.625Z,99572.41
2019-02-11T01:39:42.348Z,99577.73
2019-02-11T01:42:10.956Z,99586.55
2019-02-11T01:44:39.591Z,99594.64
2019-02-11T01:47:08.180Z,99614.23
2019-02-11T01:49:36.799Z,99620.70
2019-02-11T01:52:05.422Z,99608.62
2019-02-11T01:54:34.044Z,99601.03
2019-02-11T01:57:02.664Z,99610.14
2019-02-11T01:59:31.339Z,99619.42
2019-02-11T02:01:59.967Z,99623.24
2019-02-11T02:04:28.532Z,99628.55
2019-02-11T02:06:57.148Z,99623.29
2019-02-11T02:09:25.856Z,99639.21
2019-02-11T02:11:54.484Z,99646.18
2019-02-11T02:14:23.039Z,99653.50
2019-02-11T02:16:51.696Z,99664.30
2019-02-11T02:19:20.311Z,99661.98
2019-02-11T02:21:48.892Z,99661.98
2019-02-11T02:24:17.473Z,99678.07
2019-02-11T02:26:46.042Z,99671.77
2019-02-11T02:29:14.642Z,99675.43
2019-02-11T02:31:43.261Z,99676.11
2019-02-11T02:34:11.928Z,99683.71
2019-02-11T02:36:40.542Z,99675.73
2019-02-11T02:39:09.188Z,99682.06
2019-02-11T02:41:37.775Z,99688.70
2019-02-11T02:44:06.383Z,99696.97
2019-02-11T02:46:35.048Z,99695.31
2019-02-11T02:49:03.754Z,99707.26
2019-02-11T02:51:32.341Z,99708.41
2019-02-11T02:54:00.972Z,99714.53
2019-02-11T02:56:29.611Z,99719.14
2019-02-11T02:58:58.504Z,99722.62
2019-02-11T03:01:27.146Z,99726.78
2019-02-11T03:03:55.828Z,99735.88
2019-02-11T03:06:24.435Z,99747.33
2019-02-11T03:08:52.983Z,99741.34
2019-02-11T03:11:21.603Z,99760.23
2019-02-11T03:13:50.486Z,99765.58
2019-02-11T03:16:19.087Z,99767.56
2019-02-11T03:18:47.765Z,99781.47
2019-02-11T03:21:16.359Z,99796.42
2019-02-11T03:23:45.341Z,99792.77
2019-02-11T03:26:14.102Z,99786.00
2019-02-11T03:28:42.685Z,99806.73
2019-02-11T03:31:11.296Z,99828.64
2019-02-11T03:33:39.999Z,99826.84
2019-02-11T03:36:08.599Z,99827.36
2019-02-11T03:38:37.176Z,99837.31
2019-02-11T03:41:05.766Z,99825.55
2019-02-11T03:43:34.488Z,99833.69
2019-02-11T03:46:03.079Z,99843.98
2019-02-11T03:48:31.714Z,99851.76
2019-02-11T03:51:00.356Z,99861.55
2019-02-11T03:53:28.947Z,99862.88
2019-02-11T03:55:57.534Z,99872.16
2019-02-11T03:58:26.169Z,99872.16
2019-02-11T04:00:54.758Z,99883.74
2019-02-11T04:03:23.461Z,99891.06
2019-02-11T04:05:52.080Z,99884.41
2019-02-11T04:08:20.714Z,99888.58
2019-02-11T04:10:49.365Z,99900.66
2019-02-11T04:13:17.928Z,99899.84
2019-02-11T04:15:46.694Z,99904.97
2019-02-11T04:18:15.339Z,99907.63
2019-02-11T04:20:44.003Z,99912.28
2019-02-11T04:23:12.708Z,99916.91
2019-02-11T04:25:41.409Z,99918.23
2019-02-11T04:28:09.993Z,99915.77
2019-02-11T04:30:38.576Z,99919.22
2019-02-11T04:33:07.220Z,99935.14
2019-02-11T04:35:35.803Z,99941.30
2019-02-11T04:38:04.536Z,99939.79
2019-02-11T04:40:33.225Z,99936.11
2019-02-11T04:43:01.923Z,99941.45
2019-02-11T04:45:30.597Z,99952.03
2019-02-11T04:47:59.155Z,99953.55
2019-02-11T04:50:27.708Z,99957.36
2019-02-11T04:52:56.288Z,99960.01
2019-02-11T04:55:24.907Z,99971.27
2019-02-11T04:57:53.590Z,99967.77
2019-02-11T05:00:22.220Z,99970.92
2019-02-11T05:02:50.799Z,99984.72
2019-02-11T05:05:19.447Z,99985.55
2019-02-11T05:07:48.082Z,99995.16
2019-02-11T05:10:16.674Z,100013.09
2019-02-11T05:12:45.326Z,100007.76
2019-02-11T05:15:14.024Z,99995.99
2019-02-11T05:17:42.577Z,100000.80
2019-02-11T05:20:11.537Z,99998.80
2019-02-11T05:22:40.204Z,100016.71
2019-02-11T05:25:08.800Z,100023.66
2019-02-11T05:27:38.059Z,100028.51
2019-02-11T05:30:07.099Z,100025.01
2019-02-11T05:32:35.695Z,100020.36
2019-02-11T05:35:04.875Z,100035.61
2019-02-11T05:37:33.714Z,100040.94
2019-02-11T05:40:02.361Z,100037.12
2019-02-11T05:42:30.993Z,100041.28
2019-02-11T05:44:59.900Z,100037.98
2019-02-11T05:47:28.489Z,100041.59
2019-02-11T05:49:57.753Z,100046.91
2019-02-11T05:52:26.437Z,100048.42
2019-02-11T05:54:55.064Z,100052.21
2019-02-11T05:57:23.758Z,100053.90
2019-02-11T05:59:52.373Z,100059.20
2019-02-11T06:02:22.950Z,100057.36
2019-02-11T06:04:51.819Z,100073.12
2019-02-11T06:07:20.479Z,100076.10
2019-02-11T06:09:49.287Z,100080.42
2019-02-11T06:12:17.950Z,100092.03
2019-02-11T06:14:46.517Z,100086.38
2019-02-11T06:17:15.089Z,100093.02
2019-02-11T06:19:43.799Z,100092.16
2019-02-11T06:22:12.579Z,100111.94
2019-02-11T06:24:41.192Z,100110.91
2019-02-11T06:27:09.818Z,100109.94
2019-02-11T06:29:38.618Z,100115.91
2019-02-11T06:32:07.208Z,100131.49
2019-02-11T06:34:35.852Z,100119.89
2019-02-11T06:37:04.560Z,100133.32
2019-02-11T06:39:33.457Z,100130.64
2019-02-11T06:42:02.059Z,100145.11
2019-02-11T06:44:30.731Z,100159.05
2019-02-11T06:46:59.365Z,100165.69
2019-02-11T06:49:27.990Z,100177.16
2019-02-11T06:51:56.578Z,100169.00
2019-02-11T06:54:25.214Z,100174.31
2019-02-11T06:56:53.937Z,100180.63
2019-02-11T06:59:22.570Z,100185.95
2019-02-11T07:01:51.178Z,100189.94
2019-02-11T07:04:19.907Z,100201.22
2019-02-11T07:06:48.682Z,100203.23
2019-02-11T07:09:17.390Z,100207.36
2019-02-11T07:11:46.063Z,100224.30
2019-02-11T07:14:14.699Z,100218.81
2019-02-11T07:16:43.469Z,100225.13
2019-02-11T07:19:12.080Z,100238.25
2019-02-11T07:21:40.703Z,100247.22
2019-02-11T07:24:09.273Z,100263.34
2019-02-11T07:26:37.969Z,100266.65
2019-02-11T07:29:06.602Z,100258.02
2019-02-11T07:31:35.261Z,100267.00
2019-02-11T07:34:03.990Z,100275.81
2019-02-11T07:36:32.682Z,100284.41
2019-02-11T07:39:01.318Z,100283.59
2019-02-11T07:41:37.934Z,100282.77
2019-02-11T07:44:28.545Z,100283.59
2019-02-11T07:47:01.386Z,100237.59
2019-02-11T07:49:30.075Z,100297.55
2019-02-11T07:51:58.849Z,100300.89
2019-02-11T07:54:27.601Z,100312.86
2019-02-11T07:56:56.420Z,100307.84
2019-02-11T07:59:25.077Z,100309.19
2019-02-11T08:01:53.825Z,100307.34
2019-02-11T08:04:22.438Z,100317.16
2019-02-11T08:06:51.137Z,100333.78
2019-02-11T08:09:19.765Z,100333.10
2019-02-11T08:11:48.419Z,100352.22
2019-02-11T08:14:17.179Z,100348.73
2019-02-11T08:16:45.897Z,100362.02
2019-02-11T08:19:14.550Z,100385.97
2019-02-11T08:21:43.377Z,100377.65
2019-02-11T08:24:12.064Z,100394.61
2019-02-11T08:26:40.688Z,100402.42
2019-02-11T08:29:09.282Z,100397.25
2019-02-11T08:31:38.321Z,100406.55
2019-02-11T08:34:07.008Z,100417.53
2019-02-11T08:36:35.700Z,100414.72
2019-02-11T08:39:07.084Z,100422.53
2019-02-11T08:41:35.713Z,100426.86
2019-02-11T08:44:04.472Z,100429.17
2019-02-11T08:46:33.070Z,100425.02
2019-02-11T08:49:02.146Z,100437.82
2019-02-11T08:51:30.819Z,100435.02
2019-02-11T08:53:59.613Z,100447.81
2019-02-11T08:56:28.576Z,100455.45
2019-02-11T08:58:57.176Z,100456.78
2019-02-11T09:01:26.534Z,100462.45
2019-02-11T09:03:57.449Z,100469.25
2019-02-11T09:06:26.140Z,100477.89
2019-02-11T09:08:55.907Z,100467.91
2019-02-11T09:11:24.615Z,100478.22
2019-02-11T09:13:53.277Z,100476.58
2019-02-11T09:16:22.052Z,100482.40
2019-02-11T09:18:50.684Z,100491.37
2019-02-11T09:21:19.298Z,100494.70
2019-02-11T09:23:47.946Z,100501.36
2019-02-11T09:26:16.641Z,100502.50
2019-02-11T09:28:45.723Z,100514.00
2019-02-11T09:31:14.362Z,100517.48
2019-02-11T09:33:43.134Z,100512.67
2019-02-11T09:36:11.813Z,100515.98
2019-02-11T09:38:40.398Z,100517.65
2019-02-11T09:41:09.045Z,100547.27
2019-02-11T09:43:37.652Z,100521.31
2019-02-11T09:46:06.243Z,100502.86
2019-02-11T09:48:34.881Z,100559.59
2019-02-11T09:51:04.553Z,100556.92
2019-02-11T09:53:33.144Z,100571.91
2019-02-11T09:56:01.755Z,100566.06
2019-02-11T09:58:30.359Z,100558.27
2019-02-11T10:00:59.006Z,100563.92
2019-02-11T10:03:27.620Z,100582.55
2019-02-11T10:05:56.355Z,100578.06
2019-02-11T10:08:25.030Z,100585.19
2019-02-11T10:10:53.657Z,100594.53
2019-02-11T10:13:22.272Z,100587.05
2019-02-11T10:15:51.147Z,100593.87
2019-02-11T10:18:19.756Z,100603.84
2019-02-11T10:20:48.426Z,100616.83
2019-02-11T10:23:17.036Z,100608.50
2019-02-11T10:25:45.747Z,100621.50
2019-02-11T10:28:14.385Z,100628.49
2019-02-11T10:30:42.965Z,100628.82
2019-02-11T10:33:11.537Z,100640.14
2019-02-11T10:35:42.374Z,100645.64
2019-02-11T10:38:10.576Z,100636.59
2019-02-11T10:40:39.193Z,100651.73
2019-02-11T10:43:07.774Z,100643.02
2019-02-11T10:45:36.922Z,100643.94
2019-02-11T10:48:05.628Z,100664.39
2019-02-11T10:50:34.978Z,100679.25
2019-02-11T10:53:03.865Z,100672.11
2019-02-11T10:55:32.487Z,100674.14
2019-02-11T10:58:01.091Z,100670.14
2019-02-11T11:00:29.681Z,100687.47
2019-02-11T11:02:58.304Z,100687.15
2019-02-11T11:05:26.948Z,100705.47
2019-02-11T11:07:55.549Z,100700.11
2019-02-11T11:10:29.476Z,100699.44
2019-02-11T11:12:58.162Z,100716.08
2019-02-11T11:15:28.864Z,100701.05
2019-02-11T11:17:57.329Z,100686.73
2019-02-11T11:20:26.128Z,100700.42
2019-02-11T11:22:54.887Z,100677.80
2019-02-11T11:25:23.540Z,100711.72
2019-02-11T11:27:52.170Z,100705.67
2019-02-11T11:30:20.880Z,100699.62
2019-02-11T11:32:49.511Z,100703.41
2019-02-11T11:35:18.263Z,100712.89
2019-02-11T11:37:46.993Z,100711.27
2019-02-11T11:40:16.775Z,100713.94
2019-02-11T11:42:45.359Z,100711.66
2019-02-11T11:45:15.685Z,100720.70
2019-02-11T11:47:44.342Z,100718.36
2019-02-11T11:50:12.996Z,100735.40
2019-02-11T11:52:41.677Z,100720.88
2019-02-11T11:55:11.403Z,100732.54
2019-02-11T11:57:39.998Z,100729.04
2019-02-11T12:00:15.301Z,100741.39
2019-02-11T12:03:00.363Z,100750.75
2019-02-11T12:05:14.817Z,100755.08
2019-02-11T12:07:43.382Z,100759.23
2019-02-11T12:10:12.026Z,100752.39
2019-02-11T12:12:40.629Z,100760.35
2019-02-11T12:15:26.285Z,100756.83
2019-02-11T12:17:55.930Z,100755.88
2019-02-11T12:20:27.676Z,100748.13
2019-02-11T12:22:56.303Z,100772.30
2019-02-11T12:25:25.116Z,100765.59
2019-02-11T12:27:53.788Z,100773.16
2019-02-11T12:30:24.317Z,100765.86
2019-02-11T12:32:54.709Z,100763.80
2019-02-11T12:35:23.287Z,100773.70
2019-02-11T12:37:51.919Z,100782.63
2019-02-11T12:40:20.525Z,100792.62
2019-02-11T12:42:52.889Z,100785.65
2019-02-11T12:45:20.903Z,100780.67
2019-02-11T12:47:49.571Z,100770.67
2019-02-11T12:50:18.392Z,100777.02
2019-02-11T12:52:47.803Z,100777.97
2019-02-11T12:55:16.817Z,100782.44
2019-02-11T12:57:45.412Z,100771.86
2019-02-11T13:00:19.174Z,100779.78
2019-02-11T13:02:48.034Z,100796.63
2019-02-11T13:05:16.658Z,100799.06
2019-02-11T13:07:45.250Z,100813.13
2019-02-11T13:10:16.794Z,100806.83
2019-02-11T13:12:45.565Z,100815.09
2019-02-11T13:15:33.484Z,100815.09
2019-02-11T13:17:45.168Z,100818.29
2019-02-11T13:20:14.085Z,100821.14
2019-02-11T13:22:42.663Z,100829.20
2019-02-11T13:25:13.889Z,100829.06
2019-02-11T13:27:42.503Z,100841.09
2019-02-11T13:30:13.278Z,100843.57
2019-02-11T13:32:42.018Z,100838.55
2019-02-11T13:35:10.852Z,100850.11
2019-02-11T13:37:39.517Z,100850.25
2019-02-11T13:40:08.757Z,100825.88
2019-02-11T13:42:37.508Z,100855.98
2019-02-11T13:45:12.682Z,100854.00
2019-02-11T13:47:53.776Z,100868.19
2019-02-11T13:50:13.465Z,100877.00
2019-02-11T13:52:42.074Z,100867.26
2019-02-11T13:55:10.929Z,100849.24
2019-02-11T13:57:39.573Z,100863.14
2019-02-11T14:00:17.918Z,100882.64
2019-02-11T14:02:51.569Z,100878.63
2019-02-11T14:05:20.370Z,100891.66
2019-02-11T14:07:49.030Z,100898.37
2019-02-11T14:10:17.546Z,100893.06
2019-02-11T14:12:46.390Z,100936.42
2019-02-11T14:15:19.962Z,100911.73
2019-02-11T14:17:45.499Z,100930.62
2019-02-11T14:20:32.451Z,100934.73
2019-02-11T14:23:01.061Z,100949.98
2019-02-11T14:25:42.887Z,100953.75
2019-02-11T14:28:00.104Z,100949.19
2019-02-11T14:30:28.675Z,100944.93
2019-02-11T14:32:57.275Z,100951.21
2019-02-11T14:35:25.940Z,100963.04
2019-02-11T14:37:54.548Z,100976.59
2019-02-11T14:40:23.142Z,100979.67
2019-02-11T14:42:51.769Z,100967.72
2019-02-11T14:45:20.902Z,100975.80
2019-02-11T14:47:49.594Z,100975.80
2019-02-11T14:50:18.232Z,100988.17
2019-02-11T14:52:46.859Z,100979.65
2019-02-11T14:55:15.443Z,100984.66
2019-02-11T14:57:44.163Z,100986.98
2019-02-11T15:00:20.136Z,100990.52
2019-02-11T15:02:48.739Z,101020.27
2019-02-11T15:05:17.403Z,101005.55
2019-02-11T15:07:46.380Z,101043.30
2019-02-11T15:10:15.099Z,101012.91
2019-02-11T15:12:43.776Z,101008.40
2019-02-11T15:15:12.445Z,101035.59
2019-02-11T15:17:41.424Z,101028.77
2019-02-11T15:20:11.768Z,101031.27
2019-02-11T15:22:40.404Z,101028.26
2019-02-11T15:25:11.195Z,101040.27
2019-02-11T15:27:39.883Z,101040.92
2019-02-11T15:30:10.405Z,101053.58
2019-02-11T15:32:39.007Z,101046.58
2019-02-11T15:35:08.079Z,101045.59
2019-02-11T15:37:38.313Z,101056.93
2019-02-11T15:40:09.367Z,101053.56
2019-02-11T15:42:38.061Z,101059.91
2019-02-11T15:45:08.173Z,101065.59
2019-02-11T15:47:36.827Z,101072.25
2019-02-11T15:50:05.768Z,101082.28
2019-02-11T15:52:34.403Z,101083.28
2019-02-11T15:55:02.998Z,101083.75
2019-02-11T15:57:31.832Z,101078.28
2019-02-11T16:00:00.454Z,101089.27
2019-02-11T16:02:29.103Z,101101.63
2019-02-11T16:05:02.420Z,101112.64
2019-02-11T16:07:28.203Z,101116.31
2019-02-11T16:09:56.780Z,101110.78
2019-02-11T16:12:25.414Z,101118.13
2019-02-11T16:14:54.054Z,101117.56
2019-02-11T16:17:22.663Z,101132.41
2019-02-11T16:19:51.279Z,101143.22
2019-02-11T16:22:19.950Z,101145.56
2019-02-11T16:24:48.618Z,101156.88
2019-02-11T16:27:17.254Z,101148.96
2019-02-11T16:29:45.865Z,101173.41
2019-02-11T16:32:14.479Z,101177.41
2019-02-11T16:34:43.071Z,101170.95
2019-02-11T16:37:11.972Z,101180.95
2019-02-11T16:39:40.646Z,101195.91
2019-02-11T16:42:09.348Z,101195.06
2019-02-11T16:44:38.075Z,101216.22
2019-02-11T16:47:06.715Z,101212.38
2019-02-11T16:49:35.313Z,101219.05
2019-02-11T16:52:04.030Z,101226.72
2019-02-11T16:54:32.720Z,101230.56
2019-02-11T16:57:01.502Z,101223.52
2019-02-11T16:59:33.226Z,101235.88
2019-02-11T17:02:01.970Z,101249.45
2019-02-11T17:04:30.619Z,101246.80
2019-02-11T17:06:59.240Z,101245.40
2019-02-11T17:09:27.945Z,101260.78
2019-02-11T17:11:57.614Z,101264.27
2019-02-11T17:14:26.432Z,101258.38
2019-02-11T17:16:55.093Z,101270.77
2019-02-11T17:19:23.756Z,101271.39
2019-02-11T17:21:52.457Z,101273.22
2019-02-11T17:24:21.117Z,101283.03
2019-02-11T17:26:49.732Z,101287.86
2019-02-11T17:29:18.420Z,101283.97
2019-02-11T17:31:47.023Z,101285.91
2019-02-11T17:34:15.658Z,101312.21
2019-02-11T17:36:44.574Z,101315.47
2019-02-11T17:39:13.222Z,101337.78
2019-02-11T17:41:41.925Z,101333.23
2019-02-11T17:44:10.901Z,101324.25
2019-02-11T17:46:39.530Z,101346.89
2019-02-11T17:49:08.165Z,101353.09
2019-02-11T17:51:36.773Z,101366.50
2019-02-11T17:54:05.547Z,101357.67
2019-02-11T17:56:34.157Z,101364.52
2019-02-11T17:59:02.839Z,101360.77
2019-02-11T18:01:31.468Z,101379.34
2019-02-11T18:04:00.212Z,101380.80
2019-02-11T18:06:28.970Z,101397.95
2019-02-11T18:08:57.588Z,101401.88
2019-02-11T18:11:26.215Z,101400.20
2019-02-11T18:13:54.900Z,101409.91
2019-02-11T18:16:24.513Z,101399.64
2019-02-11T18:18:53.278Z,101408.84
2019-02-11T18:21:21.889Z,101412.11
2019-02-11T18:23:50.658Z,101421.28
2019-02-11T18:26:19.240Z,101418.20
2019-02-11T18:28:47.881Z,101439.94
2019-02-11T18:31:16.535Z,101437.28
2019-02-11T18:33:45.165Z,101446.59
2019-02-11T18:36:13.839Z,101449.30
2019-02-11T18:38:42.527Z,101453.37
2019-02-11T18:41:11.146Z,101463.33
2019-02-11T18:43:39.873Z,101474.03
2019-02-11T18:46:08.520Z,101490.83
2019-02-11T18:48:37.198Z,101501.70
2019-02-11T18:51:05.889Z,101503.25
2019-02-11T18:53:34.593Z,101518.79
2019-02-11T18:56:03.813Z,101519.05
2019-02-11T18:58:32.448Z,101522.86
2019-02-11T19:01:01.069Z,101533.27
2019-02-11T19:03:29.719Z,101525.22
2019-02-11T19:05:58.378Z,101519.55
2019-02-11T19:08:27.044Z,101526.64
2019-02-11T19:10:55.676Z,101530.41
2019-02-11T19:13:24.289Z,101537.05
2019-02-11T19:15:52.926Z,101532.07
2019-02-11T19:18:21.562Z,101542.25
2019-02-11T19:20:51.220Z,101544.34
2019-02-11T19:23:19.769Z,101540.81
2019-02-11T19:25:48.405Z,101541.20
2019-02-11T19:28:17.054Z,101555.73
2019-02-11T19:30:45.785Z,101557.70
2019-02-11T19:33:14.401Z,101561.91
2019-02-11T19:35:42.994Z,101572.00
2019-02-11T19:38:11.737Z,101572.63
2019-02-11T19:40:40.493Z,101579.45
2019-02-11T19:43:09.183Z,101573.16
2019-02-11T19:45:37.826Z,101577.62
2019-02-11T19:48:06.624Z,101577.49
2019-02-11T19:50:35.248Z,101580.19
2019-02-11T19:53:03.920Z,101589.97
2019-02-11T19:55:32.583Z,101597.06
2019-02-11T19:58:01.271Z,101597.06
2019-02-11T20:00:31.762Z,101593.94
2019-02-11T20:03:00.154Z,101604.80
2019-02-11T20:05:28.798Z,101614.73
2019-02-11T20:07:57.459Z,101616.41
2019-02-11T20:10:26.151Z,101618.25
2019-02-11T20:12:54.885Z,101626.70
2019-02-11T20:15:24.212Z,101629.09
2019-02-11T20:17:52.824Z,101627.34
2019-02-11T20:20:22.338Z,101628.33
2019-02-11T20:22:51.129Z,101620.40
2019-02-11T20:25:19.779Z,101621.64
2019-02-11T20:27:48.384Z,101621.88
2019-02-11T20:30:18.913Z,101629.59
2019-02-11T20:32:47.508Z,101612.94
2019-02-11T20:35:16.122Z,101615.14
2019-02-11T20:37:44.795Z,101614.85
2019-02-11T20:40:15.710Z,101614.19
2019-02-11T20:42:44.374Z,101598.14
2019-02-11T20:45:15.830Z,101602.81
2019-02-11T20:47:44.539Z,101590.92
2019-02-11T20:50:13.180Z,101610.67
2019-02-11T20:52:41.867Z,101617.51
2019-02-11T20:55:11.503Z,101626.34
2019-02-11T20:57:40.238Z,101632.97
2019-02-11T21:00:12.744Z,101624.30
2019-02-11T21:02:41.674Z,101622.86
2019-02-11T21:05:10.661Z,101609.59
2019-02-11T21:07:39.223Z,101608.84
2019-02-11T21:10:09.524Z,101610.29
2019-02-11T21:12:38.360Z,101621.19
2019-02-11T21:15:08.315Z,101630.24
2019-02-11T21:17:37.028Z,101634.46
2019-02-11T21:20:07.423Z,101648.69
2019-02-11T21:22:36.110Z,101646.76
2019-02-11T21:25:04.789Z,101651.15
2019-02-11T21:27:33.387Z,101655.70
2019-02-11T21:30:02.196Z,101662.83
2019-02-11T21:32:30.785Z,101664.91
2019-02-11T21:34:59.423Z,101678.03
2019-02-11T21:37:28.031Z,101687.45
2019-02-11T21:39:56.672Z,101702.89
2019-02-11T21:42:25.302Z,101716.85
2019-02-11T21:44:53.887Z,101717.44
2019-02-11T21:47:22.518Z,101726.38
2019-02-11T21:49:51.118Z,101746.14
2019-02-11T21:52:19.735Z,101749.41
2019-02-11T21:54:48.314Z,101747.23
2019-02-11T21:57:17.060Z,101757.50
2019-02-11T21:59:45.705Z,101764.24
2019-02-11T22:02:14.396Z,101770.08
2019-02-11T22:04:43.225Z,101759.55
2019-02-11T22:07:11.848Z,101764.86
2019-02-11T22:09:40.507Z,101763.31
2019-02-11T22:12:09.140Z,101769.47
2019-02-11T22:14:37.826Z,101783.34
2019-02-11T22:17:06.472Z,101772.73
2019-02-11T22:19:35.105Z,101768.39
2019-02-11T22:22:03.705Z,101765.87
2019-02-11T22:24:32.305Z,101757.69
2019-02-11T22:27:00.950Z,101771.17
2019-02-11T22:29:29.661Z,101769.11
2019-02-11T22:31:58.286Z,101765.16
2019-02-11T22:34:26.887Z,101771.77
2019-02-11T22:36:55.605Z,101769.72
2019-02-11T22:39:24.207Z,101772.63
2019-02-11T22:41:52.800Z,101776.00
2019-02-11T22:44:21.492Z,101774.92
2019-02-11T22:46:50.267Z,101771.66
2019-02-11T22:49:18.896Z,101777.06
2019-02-11T22:51:47.530Z,101783.34
2019-02-11T22:54:16.208Z,101796.97
2019-02-11T22:56:44.877Z,101802.04
2019-02-11T22:59:13.563Z,101802.17
2019-02-11T23:01:42.160Z,101806.25
2019-02-11T23:04:10.750Z,101815.56
2019-02-11T23:06:39.337Z,101824.37
2019-02-11T23:09:11.406Z,101819.78
2019-02-11T23:11:40.098Z,101841.49
2019-02-11T23:14:08.830Z,101850.17
2019-02-11T23:16:38.739Z,101857.88
2019-02-11T23:19:07.443Z,101853.05
2019-02-11T23:21:36.072Z,101861.14
2019-02-11T23:24:04.770Z,101866.34
2019-02-11T23:26:33.415Z,101871.98
2019-02-11T23:29:02.038Z,101866.54
2019-02-11T23:31:30.711Z,101860.91
2019-02-11T23:33:59.384Z,101866.18
2019-02-11T23:36:27.994Z,101864.39
2019-02-11T23:38:56.612Z,101874.30
2019-02-11T23:41:25.180Z,101876.58
2019-02-11T23:43:53.853Z,101883.17
2019-02-11T23:46:22.455Z,101882.59
2019-02-11T23:48:51.075Z,101879.54
2019-02-11T23:51:19.745Z,101880.48
2019-02-11T23:53:48.354Z,101875.68
2019-02-11T23:56:17.285Z,101879.28
2019-02-11T23:58:46.208Z,101885.40
